Terminal Aerodrome Forecast
Issued by NWS Mt. Holly, NJ

Home | Current Version | Previous Version | Text Only | Print | Product List | Glossary On
Versions: 1 2 3 4 5 6 7 8 9 10 11 12 13 14 15 16 17 18 19 20 21 22 23 24 25
000
FTUS41 KPHI 031140
TAFTTN
TAF
KTTN 031140Z 0312/0412 05006KT P6SM OVC008
      TEMPO 0312/0314 OVC012
     FM031400 05008KT P6SM BKN015 OVC035
     FM031600 09008KT P6SM SCT025 BKN035
     FM040700 06008KT P6SM -RA OVC012=

USA.gov is the U.S. government's official web portal to all federal, state and local government web resources and services.